sensor_id;sensor_type;location;lat;lon;timestamp;temperature;humidity
21216;DHT22;10765;50.954;5.322;2022-09-01T00:00:07;17.80;1.00
21216;DHT22;10765;50.954;5.322;2022-09-01T00:02:36;17.70;1.00
21216;DHT22;10765;50.954;5.322;2022-09-01T00:05:03;17.60;1.00
21216;DHT22;10765;50.954;5.322;2022-09-01T00:07:32;17.60;1.00
21216;DHT22;10765;50.954;5.322;2022-09-01T00:10:00;17.60;1.00
21216;DHT22;10765;50.954;5.322;2022-09-01T00:12:28;17.60;1.00
21216;DHT22;10765;50.954;5.322;2022-09-01T00:14:57;17.60;1.00
21216;DHT22;10765;50.954;5.322;2022-09-01T00:17:24;17.50;1.00
21216;DHT22;10765;50.954;5.322;2022-09-01T00:19:51;17.40;1.00
21216;DHT22;10765;50.954;5.322;2022-09-01T00:22:18;17.50;1.00
21216;DHT22;10765;50.954;5.322;2022-09-01T00:24:46;17.40;1.00
21216;DHT22;10765;50.954;5.322;2022-09-01T00:27:13;17.40;1.00
21216;DHT22;10765;50.954;5.322;2022-09-01T00:29:39;17.40;1.00
21216;DHT22;10765;50.954;5.322;2022-09-01T00:32:08;17.40;1.00
21216;DHT22;10765;50.954;5.322;2022-09-01T00:34:35;17.30;1.00
21216;DHT22;10765;50.954;5.322;2022-09-01T00:37:02;17.30;1.00
21216;DHT22;10765;50.954;5.322;2022-09-01T00:39:29;17.30;1.00
21216;DHT22;10765;50.954;5.322;2022-09-01T00:41:56;17.30;1.00
21216;DHT22;10765;50.954;5.322;2022-09-01T00:44:24;17.20;1.00
21216;DHT22;10765;50.954;5.322;2022-09-01T00:46:53;17.20;1.00
21216;DHT22;10765;50.954;5.322;2022-09-01T00:49:27;17.20;1.00
21216;DHT22;10765;50.954;5.322;2022-09-01T00:51:57;17.20;1.00
21216;DHT22;10765;50.954;5.322;2022-09-01T00:54:29;17.10;1.00
21216;DHT22;10765;50.954;5.322;2022-09-01T00:56:58;17.00;1.00
21216;DHT22;10765;50.954;5.322;2022-09-01T00:59:27;16.90;1.00
21216;DHT22;10765;50.954;5.322;2022-09-01T01:01:54;16.80;1.00
21216;DHT22;10765;50.954;5.322;2022-09-01T01:04:24;16.80;1.00
21216;DHT22;10765;50.954;5.322;2022-09-01T01:06:53;16.80;1.00
21216;DHT22;10765;50.954;5.322;2022-09-01T01:09:29;16.80;1.00
21216;DHT22;10765;50.954;5.322;2022-09-01T01:11:56;16.80;1.00
21216;DHT22;10765;50.954;5.322;2022-09-01T01:14:26;16.70;1.00
21216;DHT22;10765;50.954;5.322;2022-09-01T01:16:57;16.70;1.00
21216;DHT22;10765;50.954;5.322;2022-09-01T01:19:33;16.60;1.00
21216;DHT22;10765;50.954;5.322;2022-09-01T01:22:28;16.60;1.00
21216;DHT22;10765;50.954;5.322;2022-09-01T01:25:17;16.60;1.00
21216;DHT22;10765;50.954;5.322;2022-09-01T01:27:47;16.60;1.00
21216;DHT22;10765;50.954;5.322;2022-09-01T01:30:15;16.60;1.00
21216;DHT22;10765;50.954;5.322;2022-09-01T01:32:43;16.50;1.00
21216;DHT22;10765;50.954;5.322;2022-09-01T01:35:13;16.40;1.00
21216;DHT22;10765;50.954;5.322;2022-09-01T01:37:46;16.40;1.00
21216;DHT22;10765;50.954;5.322;2022-09-01T01:40:16;16.40;1.00
21216;DHT22;10765;50.954;5.322;2022-09-01T01:42:47;16.40;1.00
21216;DHT22;10765;50.954;5.322;2022-09-01T01:45:16;16.40;1.00
21216;DHT22;10765;50.954;5.322;2022-09-01T01:47:45;16.30;1.00
21216;DHT22;10765;50.954;5.322;2022-09-01T01:50:18;16.30;1.00
21216;DHT22;10765;50.954;5.322;2022-09-01T01:52:45;16.20;1.00
21216;DHT22;10765;50.954;5.322;2022-09-01T01:55:12;16.20;1.00
21216;DHT22;10765;50.954;5.322;2022-09-01T01:57:45;16.20;1.00
21216;DHT22;10765;50.954;5.322;2022-09-01T02:00:16;16.30;1.00
21216;DHT22;10765;50.954;5.322;2022-09-01T02:02:44;16.20;1.00
21216;DHT22;10765;50.954;5.322;2022-09-01T02:05:19;16.30;1.00
21216;DHT22;10765;50.954;5.322;2022-09-01T02:07:51;16.30;1.00
21216;DHT22;10765;50.954;5.322;2022-09-01T02:10:24;16.20;1.00
21216;DHT22;10765;50.954;5.322;2022-09-01T02:12:53;16.10;1.00
21216;DHT22;10765;50.954;5.322;2022-09-01T02:15:20;16.10;1.00
21216;DHT22;10765;50.954;5.322;2022-09-01T02:17:47;16.00;1.00
21216;DHT22;10765;50.954;5.322;2022-09-01T02:20:15;16.10;1.00
21216;DHT22;10765;50.954;5.322;2022-09-01T02:22:42;16.00;1.00
21216;DHT22;10765;50.954;5.322;2022-09-01T02:25:11;16.00;1.00
21216;DHT22;10765;50.954;5.322;2022-09-01T02:27:41;16.00;1.00
21216;DHT22;10765;50.954;5.322;2022-09-01T02:30:10;16.00;1.00
21216;DHT22;10765;50.954;5.322;2022-09-01T02:32:37;15.90;1.00
21216;DHT22;10765;50.954;5.322;2022-09-01T02:35:07;15.90;1.00
21216;DHT22;10765;50.954;5.322;2022-09-01T02:37:35;15.90;1.00
21216;DHT22;10765;50.954;5.322;2022-09-01T02:40:06;15.90;1.00
21216;DHT22;10765;50.954;5.322;2022-09-01T02:42:35;15.70;1.00
21216;DHT22;10765;50.954;5.322;2022-09-01T02:45:06;15.80;1.00
21216;DHT22;10765;50.954;5.322;2022-09-01T02:47:42;15.80;1.00
21216;DHT22;10765;50.954;5.322;2022-09-01T02:50:14;15.80;1.00
21216;DHT22;10765;50.954;5.322;2022-09-01T02:52:42;15.70;1.00
21216;DHT22;10765;50.954;5.322;2022-09-01T02:55:10;15.70;1.00
21216;DHT22;10765;50.954;5.322;2022-09-01T02:57:37;15.60;1.00
21216;DHT22;10765;50.954;5.322;2022-09-01T03:00:07;15.60;1.00
21216;DHT22;10765;50.954;5.322;2022-09-01T03:02:48;15.60;1.00
21216;DHT22;10765;50.954;5.322;2022-09-01T03:05:16;15.50;1.00
21216;DHT22;10765;50.954;5.322;2022-09-01T03:07:50;15.50;1.00
21216;DHT22;10765;50.954;5.322;2022-09-01T03:10:22;15.50;1.00
21216;DHT22;10765;50.954;5.322;2022-09-01T03:12:52;15.40;1.00
21216;DHT22;10765;50.954;5.322;2022-09-01T03:15:19;15.40;1.00
21216;DHT22;10765;50.954;5.322;2022-09-01T03:17:48;15.30;1.00
21216;DHT22;10765;50.954;5.322;2022-09-01T03:20:16;15.20;1.00
21216;DHT22;10765;50.954;5.322;2022-09-01T03:22:44;15.20;1.00
21216;DHT22;10765;50.954;5.322;2022-09-01T03:25:12;15.20;1.00
21216;DHT22;10765;50.954;5.322;2022-09-01T03:27:39;15.10;1.00
21216;DHT22;10765;50.954;5.322;2022-09-01T03:30:07;15.00;1.00
21216;DHT22;10765;50.954;5.322;2022-09-01T03:32:34;14.90;1.00
21216;DHT22;10765;50.954;5.322;2022-09-01T03:35:03;14.80;1.00
21216;DHT22;10765;50.954;5.322;2022-09-01T03:37:29;14.80;1.00
21216;DHT22;10765;50.954;5.322;2022-09-01T03:39:56;14.70;5.70
21216;DHT22;10765;50.954;5.322;2022-09-01T03:42:24;14.70;12.80
21216;DHT22;10765;50.954;5.322;2022-09-01T03:44:54;14.70;10.80
21216;DHT22;10765;50.954;5.322;2022-09-01T03:47:21;14.60;10.80
21216;DHT22;10765;50.954;5.322;2022-09-01T03:49:49;14.60;17.40
21216;DHT22;10765;50.954;5.322;2022-09-01T03:52:18;14.60;24.90
21216;DHT22;10765;50.954;5.322;2022-09-01T03:54:48;14.50;24.50
21216;DHT22;10765;50.954;5.322;2022-09-01T03:57:18;14.50;29.40
21216;DHT22;10765;50.954;5.322;2022-09-01T03:59:45;14.50;50.10
21216;DHT22;10765;50.954;5.322;2022-09-01T04:02:12;14.50;39.20
21216;DHT22;10765;50.954;5.322;2022-09-01T04:04:39;14.50;37.20
21216;DHT22;10765;50.954;5.322;2022-09-01T04:07:08;14.40;51.30
21216;DHT22;10765;50.954;5.322;2022-09-01T04:09:37;14.50;71.20
21216;DHT22;10765;50.954;5.322;2022-09-01T04:12:04;14.50;91.30
21216;DHT22;10765;50.954;5.322;2022-09-01T04:14:35;14.60;99.90
21216;DHT22;10765;50.954;5.322;2022-09-01T04:17:02;14.60;93.80
21216;DHT22;10765;50.954;5.322;2022-09-01T04:19:46;14.60;99.90
21216;DHT22;10765;50.954;5.322;2022-09-01T04:22:13;14.50;99.90
21216;DHT22;10765;50.954;5.322;2022-09-01T04:24:43;14.50;99.90
21216;DHT22;10765;50.954;5.322;2022-09-01T04:27:12;14.60;99.90
21216;DHT22;10765;50.954;5.322;2022-09-01T04:29:39;14.60;99.90
21216;DHT22;10765;50.954;5.322;2022-09-01T04:32:08;14.70;99.90
21216;DHT22;10765;50.954;5.322;2022-09-01T04:34:37;14.70;99.90
21216;DHT22;10765;50.954;5.322;2022-09-01T04:37:07;14.60;99.90
21216;DHT22;10765;50.954;5.322;2022-09-01T04:39:35;14.60;99.90
21216;DHT22;10765;50.954;5.322;2022-09-01T04:42:05;14.60;99.90
21216;DHT22;10765;50.954;5.322;2022-09-01T04:44:34;14.60;99.90
21216;DHT22;10765;50.954;5.322;2022-09-01T04:47:01;14.50;99.90
21216;DHT22;10765;50.954;5.322;2022-09-01T04:49:28;14.40;99.90
21216;DHT22;10765;50.954;5.322;2022-09-01T04:51:58;14.40;99.90
21216;DHT22;10765;50.954;5.322;2022-09-01T04:54:25;14.40;99.90
21216;DHT22;10765;50.954;5.322;2022-09-01T04:56:52;14.40;99.90
21216;DHT22;10765;50.954;5.322;2022-09-01T04:59:23;14.30;99.90
21216;DHT22;10765;50.954;5.322;2022-09-01T05:01:52;14.30;99.90
21216;DHT22;10765;50.954;5.322;2022-09-01T05:04:22;14.30;99.90
21216;DHT22;10765;50.954;5.322;2022-09-01T05:06:50;14.40;99.90
21216;DHT22;10765;50.954;5.322;2022-09-01T05:09:19;14.40;99.90
21216;DHT22;10765;50.954;5.322;2022-09-01T05:11:46;14.50;99.90
21216;DHT22;10765;50.954;5.322;2022-09-01T05:14:14;14.50;99.90
21216;DHT22;10765;50.954;5.322;2022-09-01T05:16:46;14.70;99.90
21216;DHT22;10765;50.954;5.322;2022-09-01T05:19:13;14.80;99.90
21216;DHT22;10765;50.954;5.322;2022-09-01T05:21:43;14.80;99.90
21216;DHT22;10765;50.954;5.322;2022-09-01T05:24:11;15.00;99.90
21216;DHT22;10765;50.954;5.322;2022-09-01T05:26:39;15.10;99.90
21216;DHT22;10765;50.954;5.322;2022-09-01T05:29:09;15.40;68.70
21216;DHT22;10765;50.954;5.322;2022-09-01T05:31:45;15.50;29.00
21216;DHT22;10765;50.954;5.322;2022-09-01T05:34:13;15.90;9.00
21216;DHT22;10765;50.954;5.322;2022-09-01T05:36:51;16.00;1.00
21216;DHT22;10765;50.954;5.322;2022-09-01T05:39:18;16.40;1.00
21216;DHT22;10765;50.954;5.322;2022-09-01T05:41:46;16.80;1.00
21216;DHT22;10765;50.954;5.322;2022-09-01T05:44:14;17.30;1.00
21216;DHT22;10765;50.954;5.322;2022-09-01T05:46:48;17.70;1.00
21216;DHT22;10765;50.954;5.322;2022-09-01T05:49:16;17.80;1.00
21216;DHT22;10765;50.954;5.322;2022-09-01T05:51:44;17.90;1.00
21216;DHT22;10765;50.954;5.322;2022-09-01T05:54:14;18.00;1.00
21216;DHT22;10765;50.954;5.322;2022-09-01T05:56:42;18.30;1.00
21216;DHT22;10765;50.954;5.322;2022-09-01T05:59:09;18.60;1.00
21216;DHT22;10765;50.954;5.322;2022-09-01T06:01:36;18.90;1.00
21216;DHT22;10765;50.954;5.322;2022-09-01T06:04:08;18.90;1.00
21216;DHT22;10765;50.954;5.322;2022-09-01T06:06:38;19.30;1.00
21216;DHT22;10765;50.954;5.322;2022-09-01T06:09:09;19.90;1.00
21216;DHT22;10765;50.954;5.322;2022-09-01T06:11:36;20.10;1.00
21216;DHT22;10765;50.954;5.322;2022-09-01T06:14:03;20.50;1.00
21216;DHT22;10765;50.954;5.322;2022-09-01T06:16:30;20.60;1.00
21216;DHT22;10765;50.954;5.322;2022-09-01T06:18:58;20.80;1.00
21216;DHT22;10765;50.954;5.322;2022-09-01T06:21:27;21.10;1.00
21216;DHT22;10765;50.954;5.322;2022-09-01T06:23:56;21.50;1.00
21216;DHT22;10765;50.954;5.322;2022-09-01T06:26:25;21.80;1.00
21216;DHT22;10765;50.954;5.322;2022-09-01T06:28:54;22.10;1.00
21216;DHT22;10765;50.954;5.322;2022-09-01T06:31:21;22.40;1.00
21216;DHT22;10765;50.954;5.322;2022-09-01T06:33:50;23.00;1.00
21216;DHT22;10765;50.954;5.322;2022-09-01T06:36:18;23.50;1.00
21216;DHT22;10765;50.954;5.322;2022-09-01T06:38:48;23.60;1.00
21216;DHT22;10765;50.954;5.322;2022-09-01T06:41:15;23.50;1.00
21216;DHT22;10765;50.954;5.322;2022-09-01T06:43:44;23.60;1.00
21216;DHT22;10765;50.954;5.322;2022-09-01T06:46:11;23.80;1.00
21216;DHT22;10765;50.954;5.322;2022-09-01T06:48:38;24.00;1.00
21216;DHT22;10765;50.954;5.322;2022-09-01T06:51:06;23.80;1.00
21216;DHT22;10765;50.954;5.322;2022-09-01T06:53:34;24.30;1.00
21216;DHT22;10765;50.954;5.322;2022-09-01T06:56:03;24.90;99.90
21216;DHT22;10765;50.954;5.322;2022-09-01T06:58:29;25.30;99.90
21216;DHT22;10765;50.954;5.322;2022-09-01T07:00:56;26.00;99.90
21216;DHT22;10765;50.954;5.322;2022-09-01T07:03:25;25.70;99.90
21216;DHT22;10765;50.954;5.322;2022-09-01T07:05:52;25.50;99.90
21216;DHT22;10765;50.954;5.322;2022-09-01T07:08:19;25.40;99.90
21216;DHT22;10765;50.954;5.322;2022-09-01T07:10:50;26.10;99.90
21216;DHT22;10765;50.954;5.322;2022-09-01T07:13:21;25.90;99.90
21216;DHT22;10765;50.954;5.322;2022-09-01T07:15:50;25.80;99.90
21216;DHT22;10765;50.954;5.322;2022-09-01T07:18:19;25.60;99.90
21216;DHT22;10765;50.954;5.322;2022-09-01T07:20:47;25.70;99.90
21216;DHT22;10765;50.954;5.322;2022-09-01T07:23:16;26.40;99.90
21216;DHT22;10765;50.954;5.322;2022-09-01T07:25:47;26.70;99.90
21216;DHT22;10765;50.954;5.322;2022-09-01T07:28:15;26.90;99.90
21216;DHT22;10765;50.954;5.322;2022-09-01T07:30:47;27.00;99.90
21216;DHT22;10765;50.954;5.322;2022-09-01T07:33:16;26.50;99.90
21216;DHT22;10765;50.954;5.322;2022-09-01T07:35:45;27.00;99.90
21216;DHT22;10765;50.954;5.322;2022-09-01T07:38:13;27.80;99.90
21216;DHT22;10765;50.954;5.322;2022-09-01T07:40:44;27.40;99.90
21216;DHT22;10765;50.954;5.322;2022-09-01T07:43:15;27.20;99.90
21216;DHT22;10765;50.954;5.322;2022-09-01T07:45:49;27.90;99.90
21216;DHT22;10765;50.954;5.322;2022-09-01T07:48:18;27.90;99.90
21216;DHT22;10765;50.954;5.322;2022-09-01T07:50:47;28.00;99.90
21216;DHT22;10765;50.954;5.322;2022-09-01T07:53:15;27.70;99.90
21216;DHT22;10765;50.954;5.322;2022-09-01T07:55:43;27.50;99.90
21216;DHT22;10765;50.954;5.322;2022-09-01T07:58:11;27.80;99.90
21216;DHT22;10765;50.954;5.322;2022-09-01T08:00:38;28.60;99.90
21216;DHT22;10765;50.954;5.322;2022-09-01T08:03:09;29.50;99.90
21216;DHT22;10765;50.954;5.322;2022-09-01T08:05:36;29.90;99.90
21216;DHT22;10765;50.954;5.322;2022-09-01T08:08:03;29.40;99.90
21216;DHT22;10765;50.954;5.322;2022-09-01T08:10:30;29.70;99.90
21216;DHT22;10765;50.954;5.322;2022-09-01T08:12:57;30.50;99.90
21216;DHT22;10765;50.954;5.322;2022-09-01T08:15:25;30.00;99.90
21216;DHT22;10765;50.954;5.322;2022-09-01T08:17:52;30.30;99.90
21216;DHT22;10765;50.954;5.322;2022-09-01T08:20:20;31.50;99.90
21216;DHT22;10765;50.954;5.322;2022-09-01T08:22:47;32.10;99.90
21216;DHT22;10765;50.954;5.322;2022-09-01T08:25:14;33.00;99.90
21216;DHT22;10765;50.954;5.322;2022-09-01T08:27:41;32.50;99.90
21216;DHT22;10765;50.954;5.322;2022-09-01T08:30:10;32.90;99.90
21216;DHT22;10765;50.954;5.322;2022-09-01T08:32:38;32.60;99.90
21216;DHT22;10765;50.954;5.322;2022-09-01T08:35:08;32.00;99.90
21216;DHT22;10765;50.954;5.322;2022-09-01T08:37:36;31.20;99.90
21216;DHT22;10765;50.954;5.322;2022-09-01T08:40:04;31.80;99.90
21216;DHT22;10765;50.954;5.322;2022-09-01T08:42:45;31.90;99.90
21216;DHT22;10765;50.954;5.322;2022-09-01T08:45:20;31.70;99.90
21216;DHT22;10765;50.954;5.322;2022-09-01T08:47:51;31.60;99.90
21216;DHT22;10765;50.954;5.322;2022-09-01T08:50:19;31.90;99.90
21216;DHT22;10765;50.954;5.322;2022-09-01T08:52:53;32.50;99.90
21216;DHT22;10765;50.954;5.322;2022-09-01T08:55:27;32.40;99.90
21216;DHT22;10765;50.954;5.322;2022-09-01T08:57:59;32.00;99.90
21216;DHT22;10765;50.954;5.322;2022-09-01T09:00:36;33.20;99.90
21216;DHT22;10765;50.954;5.322;2022-09-01T09:03:12;33.50;99.90
21216;DHT22;10765;50.954;5.322;2022-09-01T09:05:54;34.70;99.90
21216;DHT22;10765;50.954;5.322;2022-09-01T09:08:40;34.10;99.90
21216;DHT22;10765;50.954;5.322;2022-09-01T09:11:28;33.10;99.90
21216;DHT22;10765;50.954;5.322;2022-09-01T09:14:05;33.40;99.90
21216;DHT22;10765;50.954;5.322;2022-09-01T09:16:39;33.00;99.90
21216;DHT22;10765;50.954;5.322;2022-09-01T09:19:10;33.00;99.90
21216;DHT22;10765;50.954;5.322;2022-09-01T09:21:41;33.40;99.90
21216;DHT22;10765;50.954;5.322;2022-09-01T09:24:14;33.30;99.90
21216;DHT22;10765;50.954;5.322;2022-09-01T09:26:47;33.30;99.90
21216;DHT22;10765;50.954;5.322;2022-09-01T09:29:14;32.80;99.90
21216;DHT22;10765;50.954;5.322;2022-09-01T09:31:41;33.00;99.90
21216;DHT22;10765;50.954;5.322;2022-09-01T09:34:28;33.30;99.90
21216;DHT22;10765;50.954;5.322;2022-09-01T09:37:00;33.80;99.90
21216;DHT22;10765;50.954;5.322;2022-09-01T09:39:28;34.90;99.90
21216;DHT22;10765;50.954;5.322;2022-09-01T09:42:07;34.80;99.90
21216;DHT22;10765;50.954;5.322;2022-09-01T09:44:41;33.20;99.90
21216;DHT22;10765;50.954;5.322;2022-09-01T09:47:10;32.10;99.90
21216;DHT22;10765;50.954;5.322;2022-09-01T09:49:36;33.10;99.90
21216;DHT22;10765;50.954;5.322;2022-09-01T09:52:15;33.30;99.90
21216;DHT22;10765;50.954;5.322;2022-09-01T09:55:00;34.20;99.90
21216;DHT22;10765;50.954;5.322;2022-09-01T09:57:29;33.80;99.90
21216;DHT22;10765;50.954;5.322;2022-09-01T10:00:05;33.00;99.90
21216;DHT22;10765;50.954;5.322;2022-09-01T10:02:33;33.50;99.90
21216;DHT22;10765;50.954;5.322;2022-09-01T10:05:22;33.90;99.90
21216;DHT22;10765;50.954;5.322;2022-09-01T10:07:51;34.80;99.90
21216;DHT22;10765;50.954;5.322;2022-09-01T10:10:28;35.50;99.90
21216;DHT22;10765;50.954;5.322;2022-09-01T10:12:56;34.80;99.90
21216;DHT22;10765;50.954;5.322;2022-09-01T10:15:26;34.60;99.90
21216;DHT22;10765;50.954;5.322;2022-09-01T10:17:57;34.20;99.90
21216;DHT22;10765;50.954;5.322;2022-09-01T10:20:26;33.70;99.90
21216;DHT22;10765;50.954;5.322;2022-09-01T10:22:53;34.50;99.90
21216;DHT22;10765;50.954;5.322;2022-09-01T10:25:26;34.80;99.90
21216;DHT22;10765;50.954;5.322;2022-09-01T10:27:56;35.00;99.90
21216;DHT22;10765;50.954;5.322;2022-09-01T10:30:24;34.90;99.90
21216;DHT22;10765;50.954;5.322;2022-09-01T10:32:54;35.70;99.90
21216;DHT22;10765;50.954;5.322;2022-09-01T10:35:25;37.00;99.90
21216;DHT22;10765;50.954;5.322;2022-09-01T10:37:53;38.20;99.90
21216;DHT22;10765;50.954;5.322;2022-09-01T10:40:37;37.20;99.90
21216;DHT22;10765;50.954;5.322;2022-09-01T10:43:32;36.80;99.90
21216;DHT22;10765;50.954;5.322;2022-09-01T10:45:59;38.30;99.90
21216;DHT22;10765;50.954;5.322;2022-09-01T10:48:29;38.60;99.90
21216;DHT22;10765;50.954;5.322;2022-09-01T10:53:56;39.20;99.90
21216;DHT22;10765;50.954;5.322;2022-09-01T10:56:36;40.40;99.90
21216;DHT22;10765;50.954;5.322;2022-09-01T10:59:05;41.30;99.90
21216;DHT22;10765;50.954;5.322;2022-09-01T11:05:12;40.00;99.90
21216;DHT22;10765;50.954;5.322;2022-09-01T11:07:39;38.30;99.90
21216;DHT22;10765;50.954;5.322;2022-09-01T11:13:25;36.60;99.90
21216;DHT22;10765;50.954;5.322;2022-09-01T11:15:55;36.80;99.90
21216;DHT22;10765;50.954;5.322;2022-09-01T11:18:42;36.60;99.90
21216;DHT22;10765;50.954;5.322;2022-09-01T11:21:18;37.60;99.90
21216;DHT22;10765;50.954;5.322;2022-09-01T11:23:49;37.00;99.90
21216;DHT22;10765;50.954;5.322;2022-09-01T11:26:45;37.00;99.90
21216;DHT22;10765;50.954;5.322;2022-09-01T11:32:14;38.90;99.90
21216;DHT22;10765;50.954;5.322;2022-09-01T11:34:41;38.00;99.90
21216;DHT22;10765;50.954;5.322;2022-09-01T11:37:14;36.80;99.90
21216;DHT22;10765;50.954;5.322;2022-09-01T11:39:47;36.00;99.90
21216;DHT22;10765;50.954;5.322;2022-09-01T11:42:17;36.60;99.90
21216;DHT22;10765;50.954;5.322;2022-09-01T11:44:48;36.70;99.90
21216;DHT22;10765;50.954;5.322;2022-09-01T11:47:20;35.80;99.90
21216;DHT22;10765;50.954;5.322;2022-09-01T11:49:51;35.90;99.90
21216;DHT22;10765;50.954;5.322;2022-09-01T11:52:21;37.90;99.90
21216;DHT22;10765;50.954;5.322;2022-09-01T11:54:48;37.00;99.90
21216;DHT22;10765;50.954;5.322;2022-09-01T11:57:25;37.50;99.90
21216;DHT22;10765;50.954;5.322;2022-09-01T11:59:53;37.30;99.90
21216;DHT22;10765;50.954;5.322;2022-09-01T12:02:24;37.00;99.90
21216;DHT22;10765;50.954;5.322;2022-09-01T12:04:52;38.50;99.90
21216;DHT22;10765;50.954;5.322;2022-09-01T12:07:33;38.70;99.90
21216;DHT22;10765;50.954;5.322;2022-09-01T12:10:03;38.10;99.90
21216;DHT22;10765;50.954;5.322;2022-09-01T12:12:39;38.50;99.90
21216;DHT22;10765;50.954;5.322;2022-09-01T12:15:16;39.40;99.90
21216;DHT22;10765;50.954;5.322;2022-09-01T12:17:45;37.10;99.90
21216;DHT22;10765;50.954;5.322;2022-09-01T12:20:23;38.80;99.90
21216;DHT22;10765;50.954;5.322;2022-09-01T12:22:51;40.40;99.90
21216;DHT22;10765;50.954;5.322;2022-09-01T12:25:20;39.70;99.90
21216;DHT22;10765;50.954;5.322;2022-09-01T12:27:48;37.30;99.90
21216;DHT22;10765;50.954;5.322;2022-09-01T12:30:15;37.00;99.90
21216;DHT22;10765;50.954;5.322;2022-09-01T12:32:44;38.70;99.90
21216;DHT22;10765;50.954;5.322;2022-09-01T12:35:15;40.00;99.90
21216;DHT22;10765;50.954;5.322;2022-09-01T12:37:43;39.70;99.90
21216;DHT22;10765;50.954;5.322;2022-09-01T12:40:22;40.20;99.90
21216;DHT22;10765;50.954;5.322;2022-09-01T12:42:50;40.30;99.90
21216;DHT22;10765;50.954;5.322;2022-09-01T12:45:36;40.80;99.90
21216;DHT22;10765;50.954;5.322;2022-09-01T12:48:05;40.40;99.90
21216;DHT22;10765;50.954;5.322;2022-09-01T12:50:39;40.90;99.90
21216;DHT22;10765;50.954;5.322;2022-09-01T12:53:24;41.10;99.90
21216;DHT22;10765;50.954;5.322;2022-09-01T12:56:17;38.10;99.90
21216;DHT22;10765;50.954;5.322;2022-09-01T12:58:48;36.80;99.90
21216;DHT22;10765;50.954;5.322;2022-09-01T13:01:37;35.40;99.90
21216;DHT22;10765;50.954;5.322;2022-09-01T13:04:12;36.70;99.90
21216;DHT22;10765;50.954;5.322;2022-09-01T13:06:40;37.50;99.90
21216;DHT22;10765;50.954;5.322;2022-09-01T13:09:07;37.80;99.90
21216;DHT22;10765;50.954;5.322;2022-09-01T13:11:34;38.90;99.90
21216;DHT22;10765;50.954;5.322;2022-09-01T13:14:02;40.10;99.90
21216;DHT22;10765;50.954;5.322;2022-09-01T13:16:29;39.80;99.90
21216;DHT22;10765;50.954;5.322;2022-09-01T13:18:55;37.90;99.90
21216;DHT22;10765;50.954;5.322;2022-09-01T13:21:24;36.70;99.90
21216;DHT22;10765;50.954;5.322;2022-09-01T13:23:52;35.80;99.90
21216;DHT22;10765;50.954;5.322;2022-09-01T13:26:19;36.70;99.90
21216;DHT22;10765;50.954;5.322;2022-09-01T13:28:45;37.20;99.90
21216;DHT22;10765;50.954;5.322;2022-09-01T13:31:12;37.30;99.90
21216;DHT22;10765;50.954;5.322;2022-09-01T13:33:39;36.00;99.90
21216;DHT22;10765;50.954;5.322;2022-09-01T13:36:07;35.00;99.90
21216;DHT22;10765;50.954;5.322;2022-09-01T13:38:35;36.90;99.90
21216;DHT22;10765;50.954;5.322;2022-09-01T13:41:02;39.00;99.90
21216;DHT22;10765;50.954;5.322;2022-09-01T13:43:28;38.30;99.90
21216;DHT22;10765;50.954;5.322;2022-09-01T13:45:56;37.90;99.90
21216;DHT22;10765;50.954;5.322;2022-09-01T13:48:23;37.90;99.90
21216;DHT22;10765;50.954;5.322;2022-09-01T13:50:51;36.80;99.90
21216;DHT22;10765;50.954;5.322;2022-09-01T13:53:18;36.10;99.90
21216;DHT22;10765;50.954;5.322;2022-09-01T13:55:47;36.70;99.90
21216;DHT22;10765;50.954;5.322;2022-09-01T13:58:14;37.60;99.90
21216;DHT22;10765;50.954;5.322;2022-09-01T14:00:43;37.30;99.90
21216;DHT22;10765;50.954;5.322;2022-09-01T14:03:15;38.20;99.90
21216;DHT22;10765;50.954;5.322;2022-09-01T14:05:45;35.80;99.90
21216;DHT22;10765;50.954;5.322;2022-09-01T14:08:15;30.90;1.00
21216;DHT22;10765;50.954;5.322;2022-09-01T14:10:44;28.80;1.00
21216;DHT22;10765;50.954;5.322;2022-09-01T14:13:15;28.50;1.00
21216;DHT22;10765;50.954;5.322;2022-09-01T14:15:42;28.10;1.00
21216;DHT22;10765;50.954;5.322;2022-09-01T14:18:11;27.80;1.00
21216;DHT22;10765;50.954;5.322;2022-09-01T14:20:42;27.50;1.00
21216;DHT22;10765;50.954;5.322;2022-09-01T14:23:10;27.50;1.00
21216;DHT22;10765;50.954;5.322;2022-09-01T14:25:41;27.70;1.00
21216;DHT22;10765;50.954;5.322;2022-09-01T14:28:09;27.70;1.00
21216;DHT22;10765;50.954;5.322;2022-09-01T14:30:39;27.50;1.00
21216;DHT22;10765;50.954;5.322;2022-09-01T14:33:07;27.00;1.00
21216;DHT22;10765;50.954;5.322;2022-09-01T14:35:37;27.00;1.00
21216;DHT22;10765;50.954;5.322;2022-09-01T14:38:04;27.10;1.00
21216;DHT22;10765;50.954;5.322;2022-09-01T14:40:32;27.20;1.00
21216;DHT22;10765;50.954;5.322;2022-09-01T14:43:02;27.30;1.00
21216;DHT22;10765;50.954;5.322;2022-09-01T14:45:29;27.10;1.00
21216;DHT22;10765;50.954;5.322;2022-09-01T14:47:59;26.90;1.00
21216;DHT22;10765;50.954;5.322;2022-09-01T14:50:28;26.90;1.00
21216;DHT22;10765;50.954;5.322;2022-09-01T14:52:58;26.70;1.00
21216;DHT22;10765;50.954;5.322;2022-09-01T14:55:26;26.50;1.00
21216;DHT22;10765;50.954;5.322;2022-09-01T14:57:54;26.60;1.00
21216;DHT22;10765;50.954;5.322;2022-09-01T15:00:23;26.50;1.00
21216;DHT22;10765;50.954;5.322;2022-09-01T15:02:52;26.50;1.00
21216;DHT22;10765;50.954;5.322;2022-09-01T15:05:21;26.80;1.00
21216;DHT22;10765;50.954;5.322;2022-09-01T15:07:49;26.90;1.00
21216;DHT22;10765;50.954;5.322;2022-09-01T15:10:18;26.90;1.00
21216;DHT22;10765;50.954;5.322;2022-09-01T15:12:46;27.10;1.00
21216;DHT22;10765;50.954;5.322;2022-09-01T15:15:15;27.10;1.00
21216;DHT22;10765;50.954;5.322;2022-09-01T15:17:42;27.20;1.00
21216;DHT22;10765;50.954;5.322;2022-09-01T15:20:09;26.70;1.00
21216;DHT22;10765;50.954;5.322;2022-09-01T15:22:54;26.40;1.00
21216;DHT22;10765;50.954;5.322;2022-09-01T15:25:22;26.30;1.00
21216;DHT22;10765;50.954;5.322;2022-09-01T15:27:49;26.20;1.00
21216;DHT22;10765;50.954;5.322;2022-09-01T15:30:16;26.10;1.00
21216;DHT22;10765;50.954;5.322;2022-09-01T15:32:46;26.00;1.00
21216;DHT22;10765;50.954;5.322;2022-09-01T15:35:14;26.20;1.00
21216;DHT22;10765;50.954;5.322;2022-09-01T15:37:41;26.40;1.00
21216;DHT22;10765;50.954;5.322;2022-09-01T15:40:10;26.40;1.00
21216;DHT22;10765;50.954;5.322;2022-09-01T15:42:37;26.10;1.00
21216;DHT22;10765;50.954;5.322;2022-09-01T15:45:06;26.00;1.00
21216;DHT22;10765;50.954;5.322;2022-09-01T15:47:33;26.10;1.00
21216;DHT22;10765;50.954;5.322;2022-09-01T15:50:02;26.20;1.00
21216;DHT22;10765;50.954;5.322;2022-09-01T15:52:29;26.10;1.00
21216;DHT22;10765;50.954;5.322;2022-09-01T15:54:57;25.90;1.00
21216;DHT22;10765;50.954;5.322;2022-09-01T15:57:26;25.80;1.00
21216;DHT22;10765;50.954;5.322;2022-09-01T15:59:53;25.70;1.00
21216;DHT22;10765;50.954;5.322;2022-09-01T16:02:20;25.70;1.00
21216;DHT22;10765;50.954;5.322;2022-09-01T16:04:47;25.70;1.00
21216;DHT22;10765;50.954;5.322;2022-09-01T16:07:14;25.50;1.00